Time;durP1;ratioP1;P1;durP2;ratioP2;P2;SDS_P1;SDS_P2;PMS_P1;PMS_P2;Temp;Humidity;BMP_temperature;BMP_pressure;BME280_temperature;BME280_humidity;BME280_pressure;Samples;Min_cycle;Max_cycle;Signal;HPM_P1;HPM_P2
2022/07/16 00:02:28;;;;;;;4.30;3.20;;;;;;;;;;5054682;28;20568;-64
2022/07/16 00:04:54;;;;;;;5.37;3.57;;;;;;;;;;5054606;28;20206;-65
2022/07/16 00:07:20;;;;;;;2.87;2.63;;;;;;;;;;5054351;28;20245;-65
2022/07/16 00:09:46;;;;;;;6.87;3.27;;;;;;;;;;5036843;28;20252;-65
2022/07/16 00:12:12;;;;;;;5.73;2.90;;;;;;;;;;5054329;28;20178;-65
2022/07/16 00:14:38;;;;;;;4.17;3.50;;;;;;;;;;5053786;28;20180;-64
2022/07/16 00:17:04;;;;;;;7.50;3.30;;;;;;;;;;5054656;28;20191;-65
2022/07/16 00:19:30;;;;;;;6.03;3.30;;;;;;;;;;5054196;28;20237;-65
2022/07/16 00:21:57;;;;;;;4.00;3.30;;;;;;;;;;5054116;28;20662;-65
2022/07/16 00:24:24;;;;;;;5.73;3.60;;;;;;;;;;5054103;28;20713;-64
2022/07/16 00:26:50;;;;;;;4.03;3.40;;;;;;;;;;5054218;28;20347;-65
2022/07/16 00:29:18;;;;;;;5.30;3.27;;;;;;;;;;5054209;28;20689;-64
2022/07/16 00:31:44;;;;;;;5.77;3.20;;;;;;;;;;5054353;28;20260;-66
2022/07/16 00:34:10;;;;;;;7.67;3.50;;;;;;;;;;5054682;28;20175;-65
2022/07/16 00:36:37;;;;;;;5.07;3.47;;;;;;;;;;5054589;28;20244;-64
2022/07/16 00:39:04;;;;;;;5.17;3.37;;;;;;;;;;5036490;28;20187;-65
2022/07/16 00:41:30;;;;;;;4.00;3.50;;;;;;;;;;5053920;28;20682;-66
2022/07/16 00:44:09;;;;;;;5.00;3.07;;;;;;;;;;5053930;28;20642;-64
2022/07/16 00:46:35;;;;;;;4.40;3.40;;;;;;;;;;5036055;28;20233;-65
2022/07/16 00:49:01;;;;;;;4.10;3.20;;;;;;;;;;5036245;28;20213;-66
2022/07/16 00:51:28;;;;;;;4.27;3.40;;;;;;;;;;5054233;28;20194;-65
2022/07/16 00:53:55;;;;;;;5.63;3.17;;;;;;;;;;5053855;28;20175;-66
2022/07/16 00:56:21;;;;;;;4.57;2.97;;;;;;;;;;5053734;28;20186;-66
2022/07/16 00:58:48;;;;;;;5.20;3.10;;;;;;;;;;5036242;28;20654;-65
2022/07/16 01:01:15;;;;;;;5.70;3.00;;;;;;;;;;5054237;28;20199;-64
2022/07/16 01:03:42;;;;;;;6.43;3.17;;;;;;;;;;5053706;28;20522;-65
2022/07/16 01:06:09;;;;;;;6.13;3.93;;;;;;;;;;5053712;28;20205;-65
2022/07/16 01:08:35;;;;;;;3.53;2.93;;;;;;;;;;5054221;28;20174;-65
2022/07/16 01:11:02;;;;;;;4.23;3.83;;;;;;;;;;5053714;28;20202;-65
2022/07/16 01:13:28;;;;;;;4.33;2.93;;;;;;;;;;5053644;28;20257;-65
2022/07/16 01:15:54;;;;;;;4.93;3.37;;;;;;;;;;5035671;28;20553;-65
2022/07/16 01:18:20;;;;;;;4.60;3.80;;;;;;;;;;5035401;28;20178;-65
2022/07/16 01:20:46;;;;;;;6.20;3.50;;;;;;;;;;5053675;28;20198;-65
2022/07/16 01:23:18;;;;;;;8.80;3.33;;;;;;;;;;5035377;28;20221;-65
2022/07/16 01:25:44;;;;;;;4.40;3.60;;;;;;;;;;5052956;28;20195;-66
2022/07/16 01:28:10;;;;;;;5.07;3.47;;;;;;;;;;5052756;28;20174;-65
2022/07/16 01:30:36;;;;;;;3.93;3.10;;;;;;;;;;5053288;28;20194;-65
2022/07/16 01:33:17;;;;;;;7.37;3.40;;;;;;;;;;5053278;28;20185;-65
2022/07/16 01:35:43;;;;;;;4.67;3.10;;;;;;;;;;5053966;28;20163;-65
2022/07/16 01:38:11;;;;;;;4.13;3.47;;;;;;;;;;5035307;28;20185;-65
2022/07/16 01:40:37;;;;;;;5.47;3.47;;;;;;;;;;5035055;28;20222;-65
2022/07/16 01:43:03;;;;;;;6.70;3.60;;;;;;;;;;5053811;28;20200;-65
2022/07/16 01:45:29;;;;;;;5.80;3.77;;;;;;;;;;5053019;28;20571;-67
2022/07/16 01:47:55;;;;;;;4.27;3.13;;;;;;;;;;5035161;28;20549;-65
2022/07/16 01:50:21;;;;;;;4.70;3.70;;;;;;;;;;5035310;28;20198;-65
2022/07/16 01:52:47;;;;;;;5.27;3.70;;;;;;;;;;5052902;28;20178;-65
2022/07/16 01:55:13;;;;;;;3.77;3.20;;;;;;;;;;5053372;28;20174;-65
2022/07/16 01:57:39;;;;;;;5.57;3.87;;;;;;;;;;5052744;28;20253;-65
2022/07/16 02:00:05;;;;;;;4.77;3.70;;;;;;;;;;5052762;28;20240;-65
2022/07/16 02:02:31;;;;;;;4.10;3.67;;;;;;;;;;5052863;28;20178;-65
2022/07/16 02:04:57;;;;;;;5.20;3.47;;;;;;;;;;5035288;28;20531;-65
2022/07/16 02:07:23;;;;;;;4.07;3.23;;;;;;;;;;5052717;28;20248;-65
2022/07/16 02:09:49;;;;;;;4.63;3.47;;;;;;;;;;5052783;28;20199;-65
2022/07/16 02:12:15;;;;;;;7.10;3.70;;;;;;;;;;5052776;28;20175;-65
2022/07/16 02:14:41;;;;;;;5.27;3.50;;;;;;;;;;5052796;28;20170;-65
2022/07/16 02:17:06;;;;;;;6.33;3.70;;;;;;;;;;5052721;28;20221;-65
2022/07/16 02:19:32;;;;;;;6.83;3.70;;;;;;;;;;5034794;28;20206;-65
2022/07/16 02:22:01;;;;;;;4.27;3.17;;;;;;;;;;5034763;28;20186;-65
2022/07/16 02:24:27;;;;;;;3.77;3.47;;;;;;;;;;5034791;28;20298;-65
2022/07/16 02:26:52;;;;;;;4.07;3.10;;;;;;;;;;5052814;28;20706;-65
2022/07/16 02:29:18;;;;;;;3.17;2.87;;;;;;;;;;5052437;28;20183;-64
2022/07/16 02:31:45;;;;;;;7.73;3.23;;;;;;;;;;5052869;28;20174;-65
2022/07/16 02:34:11;;;;;;;3.97;3.00;;;;;;;;;;5034989;28;20535;-64
2022/07/16 02:36:37;;;;;;;3.80;3.40;;;;;;;;;;5052535;28;20278;-65
2022/07/16 02:39:03;;;;;;;4.00;3.27;;;;;;;;;;5055597;28;20557;-65
2022/07/16 02:41:29;;;;;;;5.40;3.23;;;;;;;;;;5055933;28;20236;-65
2022/07/16 02:43:55;;;;;;;3.37;3.07;;;;;;;;;;5056114;28;20702;-65
2022/07/16 02:46:21;;;;;;;9.93;3.70;;;;;;;;;;5038032;28;20202;-65
2022/07/16 02:48:47;;;;;;;5.37;3.50;;;;;;;;;;5056112;28;20612;-64
2022/07/16 02:51:13;;;;;;;5.10;3.00;;;;;;;;;;5055886;28;20705;-65
2022/07/16 02:53:39;;;;;;;3.50;3.20;;;;;;;;;;5056132;28;20300;-65
2022/07/16 02:56:05;;;;;;;7.67;2.90;;;;;;;;;;5055843;28;20261;-65
2022/07/16 02:58:31;;;;;;;3.73;3.00;;;;;;;;;;5056006;28;20174;-65
2022/07/16 03:00:57;;;;;;;4.10;2.87;;;;;;;;;;5055651;28;20739;-64
2022/07/16 03:03:23;;;;;;;4.83;3.17;;;;;;;;;;5055930;28;20213;-64
2022/07/16 03:05:49;;;;;;;3.93;3.00;;;;;;;;;;5055886;28;20593;-65
2022/07/16 03:08:15;;;;;;;4.20;3.57;;;;;;;;;;5055588;28;20300;-65
2022/07/16 03:10:40;;;;;;;3.43;3.10;;;;;;;;;;5037628;28;20205;-64
2022/07/16 03:13:06;;;;;;;4.07;3.20;;;;;;;;;;5055477;28;20235;-65
2022/07/16 03:15:32;;;;;;;3.50;3.20;;;;;;;;;;5037551;28;20557;-65
2022/07/16 03:17:58;;;;;;;6.77;3.40;;;;;;;;;;5055395;28;20186;-64
2022/07/16 03:20:24;;;;;;;6.67;3.60;;;;;;;;;;5055308;28;20194;-65
2022/07/16 03:22:50;;;;;;;5.23;3.20;;;;;;;;;;5055638;28;20186;-65
2022/07/16 03:25:16;;;;;;;3.67;3.10;;;;;;;;;;5055269;28;20270;-64
2022/07/16 03:27:43;;;;;;;3.90;3.00;;;;;;;;;;5055528;28;20584;-65
2022/07/16 03:30:09;;;;;;;5.97;3.43;;;;;;;;;;5055114;28;20670;-64
2022/07/16 03:32:35;;;;;;;5.17;3.60;;;;;;;;;;5037251;28;20602;-64
2022/07/16 03:35:03;;;;;;;5.80;3.30;;;;;;;;;;5055393;28;20175;-65
2022/07/16 03:37:29;;;;;;;3.93;2.90;;;;;;;;;;5037171;28;20228;-64
2022/07/16 03:39:55;;;;;;;5.70;3.10;;;;;;;;;;5037319;28;20245;-64
2022/07/16 03:42:21;;;;;;;4.07;3.17;;;;;;;;;;5055361;28;20189;-64
2022/07/16 03:44:47;;;;;;;6.97;3.30;;;;;;;;;;5055029;28;20217;-64
2022/07/16 03:47:13;;;;;;;4.67;3.20;;;;;;;;;;5055251;28;20195;-64
2022/07/16 03:49:39;;;;;;;5.00;3.57;;;;;;;;;;5054947;28;20222;-65
2022/07/16 03:52:05;;;;;;;4.20;3.23;;;;;;;;;;5056186;28;20174;-65
2022/07/16 03:54:31;;;;;;;4.43;3.30;;;;;;;;;;5054982;28;20627;-65
2022/07/16 03:56:57;;;;;;;5.00;3.63;;;;;;;;;;5054747;28;20182;-65
2022/07/16 03:59:23;;;;;;;4.60;3.23;;;;;;;;;;5054788;28;20179;-65
2022/07/16 04:01:49;;;;;;;4.40;3.53;;;;;;;;;;5054587;28;20182;-64
2022/07/16 04:04:15;;;;;;;4.93;3.40;;;;;;;;;;5054553;28;20572;-64
2022/07/16 04:06:41;;;;;;;4.53;2.83;;;;;;;;;;5054505;28;20720;-65
2022/07/16 04:09:07;;;;;;;4.10;3.27;;;;;;;;;;5054447;28;20710;-65
2022/07/16 04:11:32;;;;;;;6.30;3.30;;;;;;;;;;5054754;28;20178;-65
2022/07/16 04:13:58;;;;;;;4.80;3.07;;;;;;;;;;5036581;28;20182;-65
2022/07/16 04:16:24;;;;;;;5.37;2.77;;;;;;;;;;5036456;28;20194;-65
2022/07/16 04:18:50;;;;;;;3.80;3.00;;;;;;;;;;5036929;28;20273;-65
2022/07/16 04:21:16;;;;;;;5.50;3.33;;;;;;;;;;5054603;28;20230;-65
2022/07/16 04:23:42;;;;;;;4.30;3.10;;;;;;;;;;5054246;28;20217;-65
2022/07/16 04:26:08;;;;;;;3.73;3.13;;;;;;;;;;5054054;28;20198;-65
2022/07/16 04:28:34;;;;;;;4.83;3.47;;;;;;;;;;5054035;28;20178;-65
2022/07/16 04:31:00;;;;;;;3.50;3.20;;;;;;;;;;5036065;28;20202;-65
2022/07/16 04:33:26;;;;;;;4.40;2.70;;;;;;;;;;5053938;28;20174;-65
2022/07/16 04:35:52;;;;;;;4.73;3.27;;;;;;;;;;5054030;28;20185;-65
2022/07/16 04:38:18;;;;;;;4.90;2.80;;;;;;;;;;5054119;28;20258;-65
2022/07/16 04:40:44;;;;;;;4.77;3.00;;;;;;;;;;5053757;28;20210;-65
2022/07/16 04:43:10;;;;;;;5.37;3.40;;;;;;;;;;5054020;28;20550;-65
2022/07/16 04:45:36;;;;;;;5.50;3.30;;;;;;;;;;5053950;28;20201;-65
2022/07/16 04:48:02;;;;;;;4.00;3.30;;;;;;;;;;5054309;28;20237;-65
2022/07/16 04:50:28;;;;;;;9.77;3.20;;;;;;;;;;5053561;28;20199;-65
2022/07/16 04:52:54;;;;;;;3.87;2.63;;;;;;;;;;5054131;28;20177;-65
2022/07/16 04:55:20;;;;;;;5.60;2.97;;;;;;;;;;5053591;28;20642;-65
2022/07/16 04:57:46;;;;;;;4.27;3.07;;;;;;;;;;5054069;28;20190;-65
2022/07/16 05:00:12;;;;;;;4.07;3.17;;;;;;;;;;5035416;28;20558;-65
2022/07/16 05:02:56;;;;;;;4.80;2.97;;;;;;;;;;5053412;28;20182;-66
2022/07/16 05:05:23;;;;;;;6.43;2.97;;;;;;;;;;5035438;28;20174;-65
2022/07/16 05:07:49;;;;;;;5.40;2.90;;;;;;;;;;5053672;28;20178;-65
2022/07/16 05:10:15;;;;;;;5.50;2.87;;;;;;;;;;5035381;28;20222;-65
2022/07/16 05:12:41;;;;;;;6.07;3.20;;;;;;;;;;5053923;28;20175;-65
2022/07/16 05:15:07;;;;;;;3.30;2.83;;;;;;;;;;5053391;28;20196;-65
2022/07/16 05:17:33;;;;;;;4.17;3.20;;;;;;;;;;5035343;28;20213;-65
2022/07/16 05:19:59;;;;;;;3.87;3.17;;;;;;;;;;5035309;28;20241;-65
2022/07/16 05:22:25;;;;;;;6.37;3.10;;;;;;;;;;5053239;28;20233;-65
2022/07/16 05:24:51;;;;;;;4.83;3.03;;;;;;;;;;5053530;28;20646;-65
2022/07/16 05:27:17;;;;;;;6.07;3.30;;;;;;;;;;5053461;28;20281;-65
2022/07/16 05:29:43;;;;;;;4.07;3.30;;;;;;;;;;5035283;28;20719;-65
2022/07/16 05:32:09;;;;;;;4.27;3.23;;;;;;;;;;5053697;28;20174;-64
2022/07/16 05:34:35;;;;;;;3.93;3.40;;;;;;;;;;5053112;28;20170;-66
2022/07/16 05:37:01;;;;;;;4.67;3.83;;;;;;;;;;5053411;28;20178;-64
2022/07/16 05:39:27;;;;;;;4.07;3.50;;;;;;;;;;5035023;28;20182;-65
2022/07/16 05:41:53;;;;;;;4.83;4.23;;;;;;;;;;5053577;28;20615;-65
2022/07/16 05:44:19;;;;;;;8.07;4.73;;;;;;;;;;5078190;22;20763;-67
2022/07/16 05:46:45;;;;;;;7.97;4.50;;;;;;;;;;5034921;28;20198;-67
2022/07/16 05:49:11;;;;;;;6.43;4.80;;;;;;;;;;5053104;28;20174;-67
2022/07/16 05:51:37;;;;;;;5.40;4.60;;;;;;;;;;5052892;28;20181;-67
2022/07/16 05:54:03;;;;;;;6.73;4.80;;;;;;;;;;5034859;28;20213;-67
2022/07/16 05:56:29;;;;;;;7.30;5.10;;;;;;;;;;5034960;28;20190;-67
2022/07/16 05:58:56;;;;;;;5.90;5.23;;;;;;;;;;5052973;28;20204;-67
2022/07/16 06:01:22;;;;;;;13.43;5.57;;;;;;;;;;5052725;28;20190;-67
2022/07/16 06:03:48;;;;;;;9.30;5.70;;;;;;;;;;5034793;28;20209;-67
2022/07/16 06:06:14;;;;;;;8.87;5.67;;;;;;;;;;5052649;28;20673;-67
2022/07/16 06:08:40;;;;;;;8.07;5.53;;;;;;;;;;5034850;28;20697;-67
2022/07/16 06:11:06;;;;;;;6.40;5.03;;;;;;;;;;5052669;28;20201;-67
2022/07/16 06:13:32;;;;;;;7.40;5.50;;;;;;;;;;5054639;28;20194;-67
2022/07/16 06:16:01;;;;;;;8.17;5.07;;;;;;;;;;5056789;28;20174;-67
2022/07/16 06:18:27;;;;;;;6.87;5.30;;;;;;;;;;5056542;28;20185;-67
2022/07/16 06:20:53;;;;;;;7.40;5.63;;;;;;;;;;5056479;28;20194;-67
2022/07/16 06:23:19;;;;;;;8.83;4.97;;;;;;;;;;5038527;28;20248;-67
2022/07/16 06:25:45;;;;;;;8.57;5.33;;;;;;;;;;5056279;28;20316;-67
2022/07/16 06:28:11;;;;;;;6.97;5.17;;;;;;;;;;5056591;28;20175;-67
2022/07/16 06:30:37;;;;;;;6.67;5.33;;;;;;;;;;5056215;28;20185;-67
2022/07/16 06:33:03;;;;;;;7.13;5.07;;;;;;;;;;5038241;28;20235;-67
2022/07/16 06:35:29;;;;;;;9.57;4.53;;;;;;;;;;5056159;28;20265;-67
2022/07/16 06:37:55;;;;;;;7.33;4.80;;;;;;;;;;5056426;28;20178;-67
2022/07/16 06:40:21;;;;;;;5.20;4.70;;;;;;;;;;5056141;28;20574;-67
2022/07/16 06:42:47;;;;;;;7.53;5.13;;;;;;;;;;5056613;28;20564;-67
2022/07/16 06:45:13;;;;;;;5.30;4.80;;;;;;;;;;5055858;28;20698;-67
2022/07/16 06:47:39;;;;;;;9.13;5.50;;;;;;;;;;5056453;28;20221;-67
2022/07/16 06:50:05;;;;;;;6.13;4.57;;;;;;;;;;5055935;28;20183;-67
2022/07/16 06:52:31;;;;;;;6.47;4.77;;;;;;;;;;5037978;28;20579;-67
2022/07/16 06:54:57;;;;;;;8.00;5.10;;;;;;;;;;5038109;28;20206;-67
2022/07/16 06:57:24;;;;;;;5.00;3.80;;;;;;;;;;5056013;28;20260;-67
2022/07/16 06:59:50;;;;;;;5.67;3.27;;;;;;;;;;5055761;28;20181;-67
2022/07/16 07:02:16;;;;;;;5.97;3.80;;;;;;;;;;5055651;28;20182;-67
2022/07/16 07:04:42;;;;;;;4.80;3.37;;;;;;;;;;5055637;28;20217;-67
2022/07/16 07:07:08;;;;;;;4.77;2.47;;;;;;;;;;5037683;28;20242;-67
2022/07/16 07:09:34;;;;;;;3.23;2.47;;;;;;;;;;5055853;28;20186;-67
2022/07/16 07:12:00;;;;;;;3.50;2.10;;;;;;;;;;5055460;28;20187;-67
2022/07/16 07:14:26;;;;;;;1.77;1.60;;;;;;;;;;5055394;28;20197;-67
2022/07/16 07:16:52;;;;;;;1.50;1.30;;;;;;;;;;5055943;28;20189;-67
2022/07/16 07:19:18;;;;;;;1.50;1.40;;;;;;;;;;5055354;28;20260;-67
2022/07/16 07:21:43;;;;;;;6.53;1.70;;;;;;;;;;5055366;28;20179;-67
2022/07/16 07:24:09;;;;;;;1.80;1.23;;;;;;;;;;5054106;28;20194;-67
2022/07/16 07:26:35;;;;;;;2.70;1.60;;;;;;;;;;5055070;28;20206;-67
2022/07/16 07:29:01;;;;;;;1.83;1.50;;;;;;;;;;5037287;28;20210;-67
2022/07/16 07:31:27;;;;;;;2.73;1.33;;;;;;;;;;5037268;28;20179;-67
2022/07/16 07:33:53;;;;;;;1.40;1.30;;;;;;;;;;5055055;28;20202;-67
2022/07/16 07:36:19;;;;;;;1.57;1.10;;;;;;;;;;5054992;28;20186;-67
2022/07/16 07:38:45;;;;;;;1.63;1.30;;;;;;;;;;5055106;28;20179;-67
2022/07/16 07:41:11;;;;;;;2.00;1.80;;;;;;;;;;5054971;28;20248;-67
2022/07/16 07:43:37;;;;;;;3.43;1.50;;;;;;;;;;5054748;28;20213;-67
2022/07/16 07:46:03;;;;;;;5.00;2.37;;;;;;;;;;5054935;28;20209;-67
2022/07/16 07:48:29;;;;;;;1.90;1.53;;;;;;;;;;5054983;28;20590;-67
2022/07/16 07:50:55;;;;;;;1.30;1.20;;;;;;;;;;5055217;28;20190;-67
2022/07/16 07:53:21;;;;;;;2.17;1.43;;;;;;;;;;5036887;28;20203;-67
2022/07/16 07:55:47;;;;;;;1.70;1.37;;;;;;;;;;5055434;28;20194;-67
2022/07/16 07:58:13;;;;;;;1.97;1.30;;;;;;;;;;5037069;28;20678;-67
2022/07/16 08:00:39;;;;;;;2.27;1.30;;;;;;;;;;5055089;28;20675;-67
2022/07/16 08:03:05;;;;;;;1.90;1.40;;;;;;;;;;5054585;28;20206;-67
2022/07/16 08:05:30;;;;;;;2.00;1.37;;;;;;;;;;5036593;28;20212;-67
2022/07/16 08:07:56;;;;;;;2.20;1.43;;;;;;;;;;5055072;28;20631;-67
2022/07/16 08:10:22;;;;;;;2.27;1.60;;;;;;;;;;5054528;28;20346;-67
2022/07/16 08:12:48;;;;;;;1.63;1.53;;;;;;;;;;5054650;28;20203;-67
2022/07/16 08:15:15;;;;;;;3.00;1.63;;;;;;;;;;5054191;28;20194;-67
2022/07/16 08:17:41;;;;;;;2.10;1.60;;;;;;;;;;5054793;28;20186;-67
2022/07/16 08:20:08;;;;;;;1.47;1.37;;;;;;;;;;5054261;28;20573;-67
2022/07/16 08:22:34;;;;;;;3.20;1.70;;;;;;;;;;5036298;28;20189;-67
2022/07/16 08:27:45;;;;;;;1.50;1.40;;;;;;;;;;5054216;28;20227;-68
2022/07/16 08:30:11;;;;;;;1.50;1.40;;;;;;;;;;5053698;28;20646;-67
2022/07/16 08:32:37;;;;;;;2.93;1.63;;;;;;;;;;5035905;28;20175;-67
2022/07/16 08:35:03;;;;;;;1.93;1.43;;;;;;;;;;5053422;28;20693;-67
2022/07/16 08:37:37;;;;;;;2.10;1.70;;;;;;;;;;5035617;28;20182;-67
2022/07/16 08:40:04;;;;;;;2.13;1.50;;;;;;;;;;5053607;28;20323;-67
2022/07/16 08:42:32;;;;;;;3.30;1.57;;;;;;;;;;5053370;28;20205;-67
2022/07/16 08:44:58;;;;;;;3.73;1.53;;;;;;;;;;5053418;28;20214;-67
2022/07/16 08:47:25;;;;;;;2.97;1.50;;;;;;;;;;5053472;28;20203;-67
2022/07/16 08:49:51;;;;;;;1.53;1.30;;;;;;;;;;5053595;28;20635;-67
2022/07/16 08:52:19;;;;;;;1.80;1.43;;;;;;;;;;5053870;28;20520;-67
2022/07/16 08:54:46;;;;;;;1.53;1.20;;;;;;;;;;5035405;28;20199;-67
2022/07/16 08:57:12;;;;;;;4.27;1.43;;;;;;;;;;5053692;28;20178;-67
2022/07/16 08:59:38;;;;;;;1.93;1.60;;;;;;;;;;5053811;28;20265;-67
2022/07/16 09:02:04;;;;;;;2.63;1.73;;;;;;;;;;5035571;28;20190;-67
2022/07/16 09:04:30;;;;;;;3.80;1.80;;;;;;;;;;5053226;28;20229;-67
2022/07/16 09:06:56;;;;;;;1.50;1.40;;;;;;;;;;5053170;28;20612;-67
2022/07/16 09:09:22;;;;;;;2.50;1.40;;;;;;;;;;5053528;28;20178;-67
2022/07/16 09:11:48;;;;;;;1.30;1.20;;;;;;;;;;5053765;28;20665;-67
2022/07/16 09:14:15;;;;;;;2.93;1.50;;;;;;;;;;5053056;28;20570;-67
2022/07/16 09:16:42;;;;;;;2.10;1.67;;;;;;;;;;5053115;28;20277;-67
2022/07/16 09:19:10;;;;;;;1.90;1.50;;;;;;;;;;5053445;28;20545;-67
2022/07/16 09:21:37;;;;;;;2.50;1.60;;;;;;;;;;5053126;28;20220;-67
2022/07/16 09:24:04;;;;;;;1.50;1.40;;;;;;;;;;5053407;28;20206;-67
2022/07/16 09:26:30;;;;;;;1.87;1.40;;;;;;;;;;5053376;28;20269;-68
2022/07/16 09:29:01;;;;;;;1.50;1.40;;;;;;;;;;5053709;28;20174;-67
2022/07/16 09:31:33;;;;;;;3.57;1.70;;;;;;;;;;5053806;28;20162;-67
2022/07/16 09:34:02;;;;;;;1.43;1.30;;;;;;;;;;5035223;28;20233;-67
2022/07/16 09:36:28;;;;;;;3.77;1.90;;;;;;;;;;5053078;28;20186;-67
2022/07/16 09:38:55;;;;;;;2.03;1.50;;;;;;;;;;5052937;28;20546;-67
2022/07/16 09:41:22;;;;;;;1.53;1.43;;;;;;;;;;5053534;28;20206;-67
2022/07/16 09:43:48;;;;;;;3.87;1.57;;;;;;;;;;5034787;28;20296;-67
2022/07/16 09:46:24;;;;;;;2.87;1.60;;;;;;;;;;5052885;28;20230;-67
2022/07/16 09:48:51;;;;;;;3.07;1.50;;;;;;;;;;5037798;28;20174;-67
2022/07/16 09:51:18;;;;;;;1.50;1.30;;;;;;;;;;5057066;28;20178;-67
2022/07/16 09:53:46;;;;;;;2.83;1.60;;;;;;;;;;5057020;28;20194;-67
2022/07/16 09:56:14;;;;;;;1.73;1.40;;;;;;;;;;5057018;28;20546;-67
2022/07/16 09:58:40;;;;;;;2.33;1.60;;;;;;;;;;5039174;28;20586;-67
2022/07/16 10:01:06;;;;;;;4.03;1.60;;;;;;;;;;5057161;28;20185;-67
2022/07/16 10:03:32;;;;;;;1.83;1.50;;;;;;;;;;5056935;28;20209;-67
2022/07/16 10:05:58;;;;;;;2.20;1.40;;;;;;;;;;5056718;28;20213;-67
2022/07/16 10:08:24;;;;;;;1.37;1.17;;;;;;;;;;5056979;28;20166;-67
2022/07/16 10:10:51;;;;;;;2.80;1.60;;;;;;;;;;5057190;28;20178;-67
2022/07/16 10:13:18;;;;;;;4.07;1.63;;;;;;;;;;5056743;28;20271;-67
2022/07/16 10:15:46;;;;;;;2.07;1.47;;;;;;;;;;5038644;28;20646;-67
2022/07/16 10:18:32;;;;;;;1.30;1.20;;;;;;;;;;5056457;28;20174;-67
2022/07/16 10:21:06;;;;;;;2.63;1.30;;;;;;;;;;5056423;28;20656;-67
2022/07/16 10:23:33;;;;;;;3.37;1.50;;;;;;;;;;5056609;28;20198;-67
2022/07/16 10:26:00;;;;;;;1.53;1.40;;;;;;;;;;5056373;28;20323;-67
2022/07/16 10:28:40;;;;;;;1.97;1.60;;;;;;;;;;5038648;28;20641;-67
2022/07/16 10:31:25;;;;;;;1.60;1.40;;;;;;;;;;5056271;28;20661;-67
2022/07/16 10:34:11;;;;;;;1.93;1.33;;;;;;;;;;5038235;28;20190;-67
2022/07/16 10:36:47;;;;;;;3.57;1.60;;;;;;;;;;5055944;28;20246;-67
2022/07/16 10:39:16;;;;;;;1.60;1.50;;;;;;;;;;5056096;28;20177;-67
2022/07/16 10:41:49;;;;;;;4.07;1.50;;;;;;;;;;5056001;28;20555;-67
2022/07/16 10:44:15;;;;;;;2.67;1.30;;;;;;;;;;5037880;28;20221;-66
2022/07/16 10:46:52;;;;;;;1.57;1.40;;;;;;;;;;5056332;28;20202;-67
2022/07/16 10:49:18;;;;;;;2.37;1.50;;;;;;;;;;5055947;28;20171;-67
2022/07/16 10:51:54;;;;;;;1.73;1.50;;;;;;;;;;5055853;28;20182;-67
2022/07/16 10:54:20;;;;;;;2.60;1.50;;;;;;;;;;5055640;28;20197;-67
2022/07/16 10:56:47;;;;;;;2.43;1.70;;;;;;;;;;5038187;28;20642;-67
2022/07/16 10:59:19;;;;;;;4.27;1.57;;;;;;;;;;5055761;28;20584;-67
2022/07/16 11:01:46;;;;;;;2.60;1.47;;;;;;;;;;5056611;28;20522;-67
2022/07/16 11:04:12;;;;;;;2.73;1.60;;;;;;;;;;5057382;28;20203;-67
2022/07/16 11:06:39;;;;;;;1.73;1.37;;;;;;;;;;5038892;28;20205;-66
2022/07/16 11:09:07;;;;;;;4.40;1.50;;;;;;;;;;5056197;28;20241;-67
2022/07/16 11:11:33;;;;;;;2.47;1.50;;;;;;;;;;5055929;28;20175;-67
2022/07/16 11:13:59;;;;;;;2.10;1.40;;;;;;;;;;5055831;28;20198;-67
2022/07/16 11:16:25;;;;;;;3.60;1.70;;;;;;;;;;5055432;28;20232;-67
2022/07/16 11:18:51;;;;;;;1.53;1.40;;;;;;;;;;5055380;28;20639;-68
2022/07/16 11:21:17;;;;;;;3.33;1.50;;;;;;;;;;5037425;28;20187;-67
2022/07/16 11:24:11;;;;;;;2.20;1.63;;;;;;;;;;5037462;28;20209;-67
2022/07/16 11:26:37;;;;;;;1.50;1.40;;;;;;;;;;5052668;28;20587;-67
2022/07/16 11:29:03;;;;;;;3.73;1.47;;;;;;;;;;5055164;28;20288;-67
2022/07/16 11:31:29;;;;;;;4.53;1.60;;;;;;;;;;5037975;28;20259;-67
2022/07/16 11:33:59;;;;;;;2.23;1.57;;;;;;;;;;5055438;28;20233;-67
2022/07/16 11:36:30;;;;;;;2.30;1.37;;;;;;;;;;5037832;28;20202;-67
2022/07/16 11:39:13;;;;;;;4.17;1.70;;;;;;;;;;5055492;28;20186;-67
2022/07/16 11:41:41;;;;;;;3.00;1.33;;;;;;;;;;5037262;28;20269;-67
2022/07/16 11:44:08;;;;;;;4.17;1.50;;;;;;;;;;5055441;28;20214;-66
2022/07/16 11:46:34;;;;;;;2.73;1.53;;;;;;;;;;5054733;28;20670;-67
2022/07/16 11:49:00;;;;;;;3.63;2.00;;;;;;;;;;5036919;28;20186;-67
2022/07/16 11:51:29;;;;;;;1.77;1.47;;;;;;;;;;5054915;28;20210;-67
2022/07/16 11:53:56;;;;;;;4.97;1.47;;;;;;;;;;5036857;28;20194;-67
2022/07/16 11:56:35;;;;;;;2.23;1.40;;;;;;;;;;5037117;28;20537;-67
2022/07/16 11:59:02;;;;;;;2.13;1.47;;;;;;;;;;5054659;28;20538;-67
2022/07/16 12:01:32;;;;;;;2.53;1.40;;;;;;;;;;5036852;28;20186;-67
2022/07/16 12:03:58;;;;;;;3.67;1.53;;;;;;;;;;5054429;28;20210;-67
2022/07/16 12:06:24;;;;;;;6.63;1.97;;;;;;;;;;5036562;28;20216;-67
2022/07/16 12:08:52;;;;;;;2.57;1.37;;;;;;;;;;5056749;23;20227;-64
2022/07/16 12:11:18;;;;;;;3.30;1.50;;;;;;;;;;5016197;28;20178;-65
2022/07/16 12:13:54;;;;;;;3.00;1.57;;;;;;;;;;5034974;28;20242;-65
2022/07/16 12:16:21;;;;;;;2.53;1.37;;;;;;;;;;5016821;28;20190;-65
2022/07/16 12:19:00;;;;;;;2.73;1.47;;;;;;;;;;5034651;28;20233;-65
2022/07/16 12:21:27;;;;;;;2.90;1.60;;;;;;;;;;5034336;28;20179;-65
2022/07/16 12:23:53;;;;;;;1.20;1.13;;;;;;;;;;5034458;28;20267;-65
2022/07/16 12:26:27;;;;;;;1.93;1.13;;;;;;;;;;5034559;28;20273;-65
2022/07/16 12:28:53;;;;;;;2.20;1.37;;;;;;;;;;5016331;28;20195;-64
2022/07/16 12:31:19;;;;;;;2.23;1.40;;;;;;;;;;5034098;28;20207;-65
2022/07/16 12:33:51;;;;;;;2.27;1.30;;;;;;;;;;5034049;28;20199;-65
2022/07/16 12:36:18;;;;;;;4.20;1.40;;;;;;;;;;5034117;28;20210;-64
2022/07/16 12:41:20;;;;;;;4.73;1.37;;;;;;;;;;5034256;28;20191;-64
2022/07/16 12:43:48;;;;;;;2.87;1.47;;;;;;;;;;5016190;28;20194;-65
2022/07/16 12:46:15;;;;;;;2.63;1.50;;;;;;;;;;5033836;28;20698;-65
2022/07/16 12:48:46;;;;;;;4.27;1.37;;;;;;;;;;5034360;28;20203;-65
2022/07/16 12:51:14;;;;;;;1.47;1.30;;;;;;;;;;5033958;28;20726;-65
2022/07/16 12:53:40;;;;;;;1.80;1.40;;;;;;;;;;5034332;28;20203;-65
2022/07/16 12:58:51;;;;;;;1.50;1.40;;;;;;;;;;5033978;28;20210;-65
2022/07/16 13:01:18;;;;;;;4.13;2.23;;;;;;;;;;5016740;28;20202;-65
2022/07/16 13:03:44;;;;;;;1.50;1.40;;;;;;;;;;5016081;28;20560;-65
2022/07/16 13:06:10;;;;;;;2.67;1.40;;;;;;;;;;5033597;28;20253;-65
2022/07/16 13:08:36;;;;;;;2.53;1.27;;;;;;;;;;5033333;28;20206;-64
2022/07/16 13:11:03;;;;;;;2.67;1.27;;;;;;;;;;5033748;28;20167;-65
2022/07/16 13:13:30;;;;;;;2.70;1.43;;;;;;;;;;5033647;28;20211;-66
2022/07/16 13:15:56;;;;;;;3.17;1.60;;;;;;;;;;5033602;28;20179;-65
2022/07/16 13:18:22;;;;;;;2.10;1.90;;;;;;;;;;5033607;28;20182;-65
2022/07/16 13:20:48;;;;;;;1.40;1.30;;;;;;;;;;5015601;28;20229;-65
2022/07/16 13:23:14;;;;;;;3.73;1.57;;;;;;;;;;5033554;28;20203;-66
2022/07/16 13:25:40;;;;;;;2.53;1.40;;;;;;;;;;5033161;28;20174;-66
2022/07/16 13:28:06;;;;;;;1.83;1.20;;;;;;;;;;5033202;28;20233;-66
2022/07/16 13:30:32;;;;;;;4.27;1.70;;;;;;;;;;5033561;28;20210;-66
2022/07/16 13:32:58;;;;;;;4.13;1.47;;;;;;;;;;5033487;28;20197;-66
2022/07/16 13:35:24;;;;;;;2.67;1.20;;;;;;;;;;5033119;28;20175;-65
2022/07/16 13:37:50;;;;;;;3.70;1.80;;;;;;;;;;5015388;28;20192;-64
2022/07/16 13:40:16;;;;;;;1.93;1.20;;;;;;;;;;5015271;28;20671;-65
2022/07/16 13:42:42;;;;;;;1.90;1.40;;;;;;;;;;5033153;28;20226;-65
2022/07/16 13:45:08;;;;;;;3.23;1.33;;;;;;;;;;5015312;28;20229;-65
2022/07/16 13:47:35;;;;;;;2.03;1.60;;;;;;;;;;5032997;28;20608;-65
2022/07/16 13:50:01;;;;;;;2.63;1.27;;;;;;;;;;5015231;28;20550;-65
2022/07/16 13:52:27;;;;;;;2.13;1.40;;;;;;;;;;5033097;28;20205;-65
2022/07/16 13:54:53;;;;;;;2.73;1.73;;;;;;;;;;5033525;28;20258;-65
2022/07/16 14:00:04;;;;;;;2.50;1.73;;;;;;;;;;5033080;28;20222;-65
2022/07/16 14:02:30;;;;;;;3.77;1.73;;;;;;;;;;5015347;28;20636;-65
2022/07/16 14:04:56;;;;;;;3.97;1.43;;;;;;;;;;5032921;28;20186;-64
2022/07/16 14:07:22;;;;;;;1.57;1.33;;;;;;;;;;5033133;28;20195;-65
2022/07/16 14:09:48;;;;;;;3.23;1.40;;;;;;;;;;5032897;28;20218;-65
2022/07/16 14:12:14;;;;;;;3.93;1.40;;;;;;;;;;5032893;28;20175;-65
2022/07/16 14:14:40;;;;;;;2.53;1.30;;;;;;;;;;5015511;28;20206;-65
2022/07/16 14:17:06;;;;;;;4.67;1.50;;;;;;;;;;5032822;28;20179;-64
2022/07/16 14:19:32;;;;;;;3.23;1.40;;;;;;;;;;5032961;28;20206;-64
2022/07/16 14:21:58;;;;;;;3.53;1.40;;;;;;;;;;5033064;28;20214;-64
2022/07/16 14:24:24;;;;;;;1.57;1.37;;;;;;;;;;5033262;28;20278;-64
2022/07/16 14:26:50;;;;;;;2.53;1.37;;;;;;;;;;5015090;28;20214;-64
2022/07/16 14:29:16;;;;;;;4.87;1.70;;;;;;;;;;5032723;28;20199;-65
2022/07/16 14:31:42;;;;;;;2.47;1.40;;;;;;;;;;5032771;28;20220;-65
2022/07/16 14:34:08;;;;;;;2.63;1.63;;;;;;;;;;5034130;28;20179;-65
2022/07/16 14:36:34;;;;;;;2.57;1.43;;;;;;;;;;5036548;28;20183;-64
2022/07/16 14:39:00;;;;;;;1.93;1.30;;;;;;;;;;5018521;28;20276;-65
2022/07/16 14:41:26;;;;;;;3.43;1.60;;;;;;;;;;5036491;28;20217;-66
2022/07/16 14:43:51;;;;;;;2.17;1.67;;;;;;;;;;5018488;28;20179;-67
2022/07/16 14:46:18;;;;;;;2.92;1.50;;;;;;;;;;5036394;28;20207;-65
2022/07/16 14:48:45;;;;;;;2.47;1.70;;;;;;;;;;5036458;28;20233;-64
2022/07/16 14:51:11;;;;;;;3.77;1.23;;;;;;;;;;5036126;28;20176;-64
2022/07/16 14:53:37;;;;;;;2.87;1.63;;;;;;;;;;5036311;28;20645;-65